Bowring, Oklahoma
Current Conditions -  °F | °C
As of 1:53 PM on Saturday 20 Dec 2014 (Local Time) from KBVO Reporting Station
Scattered Clouds Scattered Clouds  
Wind Chill: 43°   Ceiling: Unl
Heat Index: 47°   Visibility: 10mi
Dew Point: 35°   Wind: 8mph
Humidity: 63%   Direction: 190°S
Pressure: 30.18"   Gusts: NA
Location:  36.88°N, 96.12°W
Report Text: KBVO 201953Z AUTO 19007KT 10SM SCT026 08/02 A3018 RMK AO2 SLP217 T00830017
Loading
Personal Weather Stations






























Interactive Weather Map New forecast layout! Learn more

10-Day Weather Forecast

Advertisements
Track Severe Weather on mobile